createdAt,value
2019-02-16T00:04:13.003Z,-1.08
2019-02-16T00:06:41.432Z,-1.21
2019-02-16T00:09:09.956Z,-1.23
2019-02-16T00:11:38.412Z,-1.28
2019-02-16T00:14:26.163Z,-1.26
2019-02-16T00:16:54.619Z,-1.22
2019-02-16T00:19:23.048Z,-1.16
2019-02-16T00:21:51.502Z,-1.17
2019-02-16T00:24:39.150Z,-1.27
2019-02-16T00:27:07.591Z,-1.35
2019-02-16T00:29:36.016Z,-1.47
2019-02-16T00:34:38.863Z,-1.31
2019-02-16T00:39:41.316Z,-1.40
2019-02-16T00:42:09.744Z,-1.33
2019-02-16T00:44:38.169Z,-1.37
2019-02-16T00:47:06.637Z,-1.43
2019-02-16T00:49:35.067Z,-1.44
2019-02-16T00:52:03.776Z,-1.62
2019-02-16T00:54:32.233Z,-1.51
2019-02-16T00:57:00.659Z,-1.63
2019-02-16T00:59:48.301Z,-1.53
2019-02-16T01:02:16.729Z,-1.54
2019-02-16T01:04:45.171Z,-1.51
2019-02-16T01:10:06.403Z,-1.52
2019-02-16T01:12:54.049Z,-1.64
2019-02-16T01:15:22.474Z,-1.62
2019-02-16T01:17:50.908Z,-1.68
2019-02-16T01:20:19.359Z,-1.68
2019-02-16T01:22:48.061Z,-1.79
2019-02-16T01:25:17.945Z,-1.82
2019-02-16T01:27:46.721Z,-1.74
2019-02-16T01:30:34.411Z,-1.79
2019-02-16T01:35:36.868Z,-1.88
2019-02-16T01:38:24.578Z,-1.90
2019-02-16T01:41:12.325Z,-1.73
2019-02-16T01:43:40.790Z,-1.93
2019-02-16T01:46:09.221Z,-2.05
2019-02-16T01:48:37.656Z,-1.86
2019-02-16T01:51:06.112Z,-1.79
2019-02-16T01:53:34.544Z,-1.93
2019-02-16T01:56:03.062Z,-2.04
2019-02-16T01:58:31.880Z,-1.92
2019-02-16T02:01:00.308Z,-2.02
2019-02-16T02:03:28.744Z,-1.96
2019-02-16T02:06:16.904Z,-1.98
2019-02-16T02:08:45.669Z,-2.00
2019-02-16T02:11:14.105Z,-2.00
2019-02-16T02:13:42.652Z,-2.11
2019-02-16T02:16:11.420Z,-2.08
2019-02-16T02:18:40.210Z,-2.07
2019-02-16T02:21:09.022Z,-2.24
2019-02-16T02:23:37.454Z,-2.10
2019-02-16T02:26:25.152Z,-2.29
2019-02-16T02:28:53.576Z,-2.26
2019-02-16T02:31:22.022Z,-2.21
2019-02-16T02:33:50.469Z,-2.11
2019-02-16T02:36:18.890Z,-2.21
2019-02-16T02:38:47.315Z,-2.22
2019-02-16T02:41:15.775Z,-2.12
2019-02-16T02:44:24.137Z,-2.20
2019-02-16T02:49:26.261Z,-2.18
2019-02-16T02:51:54.724Z,-2.20
2019-02-16T02:54:23.153Z,-2.12
2019-02-16T02:56:51.584Z,-2.30
2019-02-16T02:59:20.333Z,-2.35
2019-02-16T03:01:48.756Z,-2.41
2019-02-16T03:04:17.278Z,-2.30
2019-02-16T03:09:19.620Z,-2.30
2019-02-16T03:11:48.049Z,-2.21
2019-02-16T03:16:50.759Z,-2.53
2019-02-16T03:19:19.209Z,-2.40
2019-02-16T03:21:47.645Z,-2.36
2019-02-16T03:24:16.074Z,-2.37
2019-02-16T03:33:25.557Z,-2.48
2019-02-16T03:36:33.951Z,-2.70
2019-02-16T03:39:42.457Z,-2.66
2019-02-16T03:42:11.202Z,-2.64
2019-02-16T03:44:58.972Z,-2.45
2019-02-16T03:47:27.414Z,-2.46
2019-02-16T03:49:55.837Z,-2.40
2019-02-16T03:52:24.312Z,-2.38
2019-02-16T03:54:53.081Z,-2.35
2019-02-16T04:00:49.258Z,-2.37
2019-02-16T04:03:17.686Z,-2.25
2019-02-16T04:06:05.296Z,-2.30
2019-02-16T04:08:52.971Z,-2.32
2019-02-16T04:11:40.760Z,-2.31
2019-02-16T04:14:09.286Z,-2.12
2019-02-16T04:16:37.712Z,-2.03
2019-02-16T04:19:25.489Z,-2.18
2019-02-16T04:21:54.275Z,-2.20
2019-02-16T04:24:22.768Z,-2.26
2019-02-16T04:26:51.241Z,-2.46
2019-02-16T04:29:19.680Z,-2.54
2019-02-16T04:31:48.112Z,-2.66
2019-02-16T04:34:17.001Z,-2.76
2019-02-16T04:36:45.436Z,-2.74
2019-02-16T04:39:13.871Z,-2.60
2019-02-16T04:41:42.337Z,-2.67
2019-02-16T04:44:10.845Z,-2.66
2019-02-16T04:46:39.280Z,-2.77
2019-02-16T04:51:41.443Z,-2.53
2019-02-16T04:54:10.164Z,-2.73
2019-02-16T04:56:38.948Z,-2.61
2019-02-16T04:59:07.373Z,-2.53
2019-02-16T05:01:35.803Z,-2.54
2019-02-16T05:04:04.258Z,-2.62
2019-02-16T05:06:32.686Z,-2.74
2019-02-16T05:09:01.476Z,-2.79
2019-02-16T05:14:03.900Z,-2.61
2019-02-16T05:16:32.418Z,-2.80
2019-02-16T05:19:00.885Z,-2.92
2019-02-16T05:21:29.314Z,-3.14
2019-02-16T05:23:57.746Z,-3.07
2019-02-16T05:26:26.666Z,-3.03
2019-02-16T05:28:55.092Z,-2.88
2019-02-16T05:31:23.524Z,-2.93
2019-02-16T05:33:51.987Z,-3.09
2019-02-16T05:36:20.414Z,-2.94
2019-02-16T05:38:48.928Z,-3.09
2019-02-16T05:41:17.397Z,-2.48
2019-02-16T05:43:45.825Z,-1.87
2019-02-16T05:46:33.616Z,-1.42
2019-02-16T05:49:02.044Z,-2.35
2019-02-16T05:51:30.507Z,-2.60
2019-02-16T05:56:33.230Z,-2.44
2019-02-16T05:59:01.698Z,-2.64
2019-02-16T06:01:30.219Z,-2.70
2019-02-16T06:03:58.910Z,-2.89
2019-02-16T06:09:02.124Z,-2.98
2019-02-16T06:11:30.654Z,-2.97
2019-02-16T06:13:59.368Z,-3.07
2019-02-16T06:16:28.601Z,-3.03
2019-02-16T06:18:57.351Z,-3.04
2019-02-16T06:21:45.034Z,-3.12
2019-02-16T06:24:13.576Z,-2.99
2019-02-16T06:26:42.289Z,-3.07
2019-02-16T06:29:10.717Z,-3.02
2019-02-16T06:31:39.277Z,-2.94
2019-02-16T06:34:07.978Z,-3.18
2019-02-16T06:39:25.788Z,-3.28
2019-02-16T06:41:55.085Z,-3.44
2019-02-16T06:44:23.517Z,-3.50
2019-02-16T06:46:52.267Z,-3.48
2019-02-16T06:49:20.970Z,-3.41
2019-02-16T06:51:49.514Z,-3.37
2019-02-16T06:54:18.270Z,-3.46
2019-02-16T06:57:05.818Z,-3.30
2019-02-16T06:59:34.279Z,-3.30
2019-02-16T07:02:02.701Z,-2.10
2019-02-16T07:04:31.123Z,-2.65
2019-02-16T07:06:59.644Z,-2.92
2019-02-16T07:09:28.073Z,-3.10
2019-02-16T07:11:56.593Z,-2.96
2019-02-16T07:14:25.193Z,-2.84
2019-02-16T07:16:55.262Z,-2.99
2019-02-16T07:19:27.768Z,-2.00
2019-02-16T07:21:56.697Z,-1.91
2019-02-16T07:24:25.194Z,-1.69
2019-02-16T07:26:53.621Z,-1.96
2019-02-16T07:29:22.414Z,-1.98
2019-02-16T07:31:50.832Z,-2.03
2019-02-16T07:34:19.272Z,-1.92
2019-02-16T07:36:47.728Z,-1.99
2019-02-16T07:39:16.158Z,-1.86
2019-02-16T07:41:44.609Z,-1.86
2019-02-16T07:44:31.385Z,-1.68
2019-02-16T07:47:01.444Z,-1.64
2019-02-16T07:49:48.299Z,-1.61
2019-02-16T07:52:21.742Z,-1.51
2019-02-16T07:55:01.565Z,-1.46
2019-02-16T07:57:32.003Z,-1.41
2019-02-16T08:00:02.270Z,-1.28
2019-02-16T08:02:32.441Z,-1.18
2019-02-16T08:05:02.513Z,-1.05
2019-02-16T08:07:35.369Z,-0.97
2019-02-16T08:10:11.869Z,-0.88
2019-02-16T08:12:44.904Z,-0.81
2019-02-16T08:15:20.618Z,-0.66
2019-02-16T08:17:50.690Z,-0.58
2019-02-16T08:20:20.785Z,-0.48
2019-02-16T08:23:00.060Z,-0.40
2019-02-16T08:25:30.467Z,-0.25
2019-02-16T08:28:09.782Z,-0.16
2019-02-16T08:30:42.562Z,-0.06
2019-02-16T08:33:18.985Z,-0.03
2019-02-16T08:36:05.448Z,0.14
2019-02-16T08:38:35.567Z,0.20
2019-02-16T08:41:11.324Z,0.29
2019-02-16T08:43:50.226Z,0.40
2019-02-16T08:46:26.086Z,0.48
2019-02-16T08:49:01.885Z,0.52
2019-02-16T08:51:31.964Z,0.68
2019-02-16T08:54:08.016Z,0.76
2019-02-16T08:56:49.795Z,0.89
2019-02-16T08:59:25.643Z,1.04
2019-02-16T09:01:58.803Z,1.11
2019-02-16T09:04:47.064Z,1.22
2019-02-16T09:07:17.134Z,1.25
2019-02-16T09:09:47.217Z,1.20
2019-02-16T09:12:17.399Z,1.43
2019-02-16T09:14:52.944Z,1.54
2019-02-16T09:17:39.322Z,1.78
2019-02-16T09:20:18.960Z,1.94
2019-02-16T09:22:58.027Z,1.92
2019-02-16T09:25:37.387Z,2.18
2019-02-16T09:28:19.791Z,2.31
2019-02-16T09:30:49.859Z,2.30
2019-02-16T09:33:22.467Z,2.56
2019-02-16T09:35:58.005Z,2.72
2019-02-16T09:38:39.902Z,2.80
2019-02-16T09:41:19.436Z,2.73
2019-02-16T09:44:05.306Z,3.00
2019-02-16T09:46:38.350Z,3.20
2019-02-16T09:49:13.906Z,3.40
2019-02-16T09:51:50.291Z,3.54
2019-02-16T09:54:20.479Z,3.62
2019-02-16T09:56:50.553Z,3.79
2019-02-16T09:59:21.030Z,3.96
2019-02-16T10:01:57.086Z,3.73
2019-02-16T10:04:27.255Z,3.79
2019-02-16T10:07:00.514Z,4.08
2019-02-16T10:09:36.787Z,4.09
2019-02-16T10:12:25.195Z,4.18
2019-02-16T10:15:13.545Z,4.28
2019-02-16T10:17:43.704Z,4.42
2019-02-16T10:20:30.829Z,4.46
2019-02-16T10:23:06.933Z,4.55
2019-02-16T10:25:42.584Z,4.66
2019-02-16T10:28:15.316Z,4.72
2019-02-16T10:30:48.524Z,4.73
2019-02-16T10:33:18.595Z,5.00
2019-02-16T10:35:54.892Z,5.09
2019-02-16T10:38:27.644Z,5.34
2019-02-16T10:41:03.512Z,5.48
2019-02-16T10:43:48.588Z,5.56
2019-02-16T10:46:18.817Z,5.94
2019-02-16T10:48:58.127Z,5.82
2019-02-16T10:51:28.259Z,5.93
2019-02-16T10:54:04.788Z,5.80
2019-02-16T10:56:37.429Z,6.09
2019-02-16T10:59:10.019Z,6.18
2019-02-16T11:01:50.346Z,6.46
2019-02-16T11:04:20.508Z,6.58
2019-02-16T11:06:50.587Z,6.31
2019-02-16T11:09:29.776Z,6.57
2019-02-16T11:12:05.997Z,6.60
2019-02-16T11:14:36.104Z,6.74
2019-02-16T11:17:22.200Z,6.79
2019-02-16T11:20:04.433Z,6.87
2019-02-16T11:22:49.568Z,7.03
2019-02-16T11:25:36.305Z,7.05
2019-02-16T11:28:15.131Z,7.22
2019-02-16T11:31:01.734Z,7.56
2019-02-16T11:33:34.832Z,7.78
2019-02-16T11:36:08.275Z,7.72
2019-02-16T11:38:47.494Z,7.57
2019-02-16T11:41:19.234Z,7.82
2019-02-16T11:43:52.485Z,7.84
2019-02-16T11:46:22.694Z,8.03
2019-02-16T11:48:55.215Z,8.20
2019-02-16T11:51:25.354Z,8.25
2019-02-16T11:54:11.563Z,8.44
2019-02-16T11:56:59.774Z,8.45
2019-02-16T11:59:30.217Z,8.52
2019-02-16T12:02:09.273Z,8.48
2019-02-16T12:04:42.619Z,8.57
2019-02-16T12:07:12.696Z,8.61
2019-02-16T12:09:42.767Z,8.71
2019-02-16T12:12:12.885Z,8.74
2019-02-16T12:14:49.233Z,8.93
2019-02-16T12:17:19.414Z,9.17
2019-02-16T12:20:05.693Z,9.25
2019-02-16T12:22:41.460Z,9.26
2019-02-16T12:25:20.909Z,9.10
2019-02-16T12:27:57.150Z,9.43
2019-02-16T12:30:30.274Z,9.54
2019-02-16T12:33:12.489Z,9.58
2019-02-16T12:35:45.140Z,9.61
2019-02-16T12:38:15.401Z,9.62
2019-02-16T12:40:48.408Z,9.75
2019-02-16T12:43:34.690Z,9.80
2019-02-16T12:46:05.212Z,9.89
2019-02-16T12:49:12.183Z,10.03
2019-02-16T12:51:59.768Z,10.06
2019-02-16T12:54:47.585Z,10.00
2019-02-16T13:00:14.362Z,10.14
2019-02-16T13:08:30.268Z,10.46
2019-02-16T13:14:06.935Z,10.50
2019-02-16T13:22:38.649Z,10.51
2019-02-16T13:35:58.260Z,10.62
2019-02-16T13:38:45.712Z,10.81
2019-02-16T13:46:48.687Z,10.83
2019-02-16T13:52:25.709Z,10.73
2019-02-16T14:00:50.790Z,10.82
2019-02-16T14:06:27.159Z,11.05
2019-02-16T14:09:14.799Z,11.10
2019-02-16T14:12:21.702Z,11.22
2019-02-16T14:17:58.665Z,11.33
2019-02-16T14:20:27.093Z,11.34
2019-02-16T14:22:55.858Z,11.48
2019-02-16T14:25:45.633Z,11.57
2019-02-16T14:28:33.019Z,11.54
2019-02-16T14:31:01.482Z,11.50
2019-02-16T14:33:30.101Z,11.50
2019-02-16T14:35:58.566Z,11.60
2019-02-16T14:41:06.335Z,11.62
2019-02-16T14:43:34.795Z,11.90
2019-02-16T14:46:03.231Z,11.95
2019-02-16T14:48:31.692Z,11.91
2019-02-16T14:51:00.123Z,11.90
2019-02-16T14:53:28.571Z,11.82
2019-02-16T14:55:57.030Z,11.88
2019-02-16T14:58:25.465Z,11.95
2019-02-16T15:00:53.899Z,11.97
2019-02-16T15:03:22.369Z,11.83
2019-02-16T15:05:50.803Z,11.92
2019-02-16T15:11:06.778Z,11.96
2019-02-16T15:13:35.215Z,11.88
2019-02-16T15:18:51.145Z,11.82
2019-02-16T15:21:19.579Z,11.87
2019-02-16T15:23:48.014Z,11.93
2019-02-16T15:26:16.591Z,11.88
2019-02-16T15:28:45.028Z,11.88
2019-02-16T15:31:13.465Z,11.79
2019-02-16T15:33:41.927Z,11.76
2019-02-16T15:36:10.714Z,11.69
2019-02-16T15:38:39.154Z,11.78
2019-02-16T15:41:07.625Z,11.78
2019-02-16T15:43:36.361Z,11.80
2019-02-16T15:48:52.423Z,11.65
2019-02-16T15:51:20.858Z,11.61
2019-02-16T15:53:49.641Z,11.65
2019-02-16T15:56:18.431Z,11.54
2019-02-16T15:58:46.939Z,11.49
2019-02-16T16:01:15.405Z,11.46
2019-02-16T16:03:43.871Z,11.46
2019-02-16T16:06:12.305Z,11.32
2019-02-16T16:08:42.381Z,11.21
2019-02-16T16:11:21.382Z,11.17
2019-02-16T16:13:54.193Z,11.14
2019-02-16T16:16:39.301Z,11.04
2019-02-16T16:19:11.826Z,10.99
2019-02-16T16:21:44.636Z,10.92
2019-02-16T16:24:32.603Z,10.72
2019-02-16T16:27:05.625Z,10.67
2019-02-16T16:29:44.810Z,10.45
2019-02-16T16:32:32.834Z,10.30
2019-02-16T16:35:02.909Z,10.15
2019-02-16T16:37:36.068Z,10.02
2019-02-16T16:40:06.920Z,9.84
2019-02-16T16:42:52.867Z,9.65
2019-02-16T16:45:22.994Z,9.52
2019-02-16T16:48:09.469Z,9.32
2019-02-16T16:50:56.106Z,9.17
2019-02-16T16:53:42.677Z,9.12
2019-02-16T16:56:28.170Z,9.14
2019-02-16T16:58:53.747Z,9.04
2019-02-16T17:01:24.108Z,8.96
2019-02-16T17:04:10.762Z,8.75
2019-02-16T17:06:40.954Z,8.72
2019-02-16T17:09:14.791Z,8.69
2019-02-16T17:11:57.137Z,8.67
2019-02-16T17:14:27.218Z,8.65
2019-02-16T17:16:59.327Z,8.38
2019-02-16T17:19:29.503Z,8.12
2019-02-16T17:22:02.416Z,7.89
2019-02-16T17:24:35.221Z,7.89
2019-02-16T17:27:08.056Z,7.52
2019-02-16T17:29:41.124Z,7.25
2019-02-16T17:32:11.192Z,7.09
2019-02-16T17:34:50.373Z,7.04
2019-02-16T17:37:20.536Z,6.81
2019-02-16T17:39:56.497Z,6.64
2019-02-16T17:42:29.227Z,6.65
2019-02-16T17:45:02.458Z,6.55
2019-02-16T17:47:50.554Z,6.25
2019-02-16T17:50:23.650Z,6.22
2019-02-16T17:53:11.795Z,6.08
2019-02-16T17:55:44.496Z,5.91
2019-02-16T17:58:17.561Z,5.68
2019-02-16T18:00:56.634Z,5.48
2019-02-16T18:03:26.708Z,5.48
2019-02-16T18:06:08.859Z,5.35
2019-02-16T18:08:47.865Z,5.33
2019-02-16T18:11:20.664Z,5.26
2019-02-16T18:14:08.969Z,5.07
2019-02-16T18:16:55.707Z,4.76
2019-02-16T18:19:31.529Z,4.64
2019-02-16T18:22:20.028Z,4.53
2019-02-16T18:25:06.645Z,4.50
2019-02-16T18:27:53.101Z,4.33
2019-02-16T18:30:28.748Z,4.20
2019-02-16T18:33:14.958Z,4.25
2019-02-16T18:35:54.178Z,4.17
2019-02-16T18:38:27.084Z,4.05
2019-02-16T18:41:00.053Z,3.78
2019-02-16T18:43:30.157Z,3.69
2019-02-16T18:46:00.321Z,3.78
2019-02-16T18:48:36.460Z,3.80
2019-02-16T18:51:06.631Z,3.71
2019-02-16T18:53:49.402Z,3.64
2019-02-16T18:56:35.646Z,3.50
2019-02-16T18:59:06.228Z,3.30
2019-02-16T19:01:38.718Z,3.21
2019-02-16T19:04:08.915Z,3.09
2019-02-16T19:06:39.092Z,2.99
2019-02-16T19:09:12.203Z,3.12
2019-02-16T19:11:48.364Z,3.25
2019-02-16T19:14:24.251Z,3.12
2019-02-16T19:16:54.369Z,3.03
2019-02-16T19:19:24.519Z,2.87
2019-02-16T19:21:57.375Z,2.77
2019-02-16T19:24:39.272Z,2.72
2019-02-16T19:27:16.461Z,2.64
2019-02-16T19:29:59.979Z,2.51
2019-02-16T19:32:36.137Z,2.45
2019-02-16T19:35:23.420Z,2.32
2019-02-16T19:37:59.196Z,2.34
2019-02-16T19:40:31.868Z,2.31
2019-02-16T19:43:13.927Z,2.18
2019-02-16T19:45:44.147Z,2.05
2019-02-16T19:48:16.665Z,2.16
2019-02-16T19:50:49.255Z,2.02
2019-02-16T19:53:19.373Z,1.92
2019-02-16T19:56:05.802Z,1.94
2019-02-16T19:58:45.117Z,1.92
2019-02-16T20:01:18.559Z,1.93
2019-02-16T20:04:03.828Z,1.75
2019-02-16T20:06:46.505Z,1.76
2019-02-16T20:09:28.831Z,1.48
2019-02-16T20:12:02.529Z,1.46
2019-02-16T20:14:49.250Z,1.51
2019-02-16T20:17:35.859Z,1.56
2019-02-16T20:20:08.209Z,1.72
2019-02-16T20:22:38.383Z,1.59
2019-02-16T20:25:17.714Z,1.46
2019-02-16T20:27:48.029Z,1.36
2019-02-16T20:30:33.223Z,1.46
2019-02-16T20:33:03.562Z,1.48
2019-02-16T20:35:39.887Z,1.31
2019-02-16T20:38:21.738Z,1.25
2019-02-16T20:40:54.670Z,1.17
2019-02-16T20:43:41.332Z,1.41
2019-02-16T20:46:11.549Z,1.27
2019-02-16T20:48:59.096Z,1.27
2019-02-16T20:51:41.342Z,1.19
2019-02-16T20:54:23.633Z,1.25
2019-02-16T20:56:59.784Z,1.07
2019-02-16T20:59:30.333Z,1.03
2019-02-16T21:02:17.010Z,1.16
2019-02-16T21:04:50.558Z,1.09
2019-02-16T21:07:32.832Z,1.09
2019-02-16T21:10:02.954Z,0.91
2019-02-16T21:12:41.683Z,0.89
2019-02-16T21:15:14.636Z,0.95
2019-02-16T21:17:47.990Z,0.79
2019-02-16T21:20:18.194Z,0.77
2019-02-16T21:23:06.246Z,0.86
2019-02-16T21:25:36.448Z,0.91
2019-02-16T21:28:06.745Z,0.71
2019-02-16T21:30:46.206Z,0.69
2019-02-16T21:33:25.117Z,0.95
2019-02-16T21:36:02.198Z,1.13
2019-02-16T21:38:32.675Z,0.91
2019-02-16T21:41:18.569Z,0.98
2019-02-16T21:43:48.791Z,1.02
2019-02-16T21:46:18.867Z,1.21
2019-02-16T21:48:48.984Z,1.19
2019-02-16T21:51:22.037Z,1.16
2019-02-16T21:53:52.192Z,1.04
2019-02-16T21:56:31.949Z,0.90
2019-02-16T21:59:19.520Z,1.00
2019-02-16T22:01:56.154Z,0.84
2019-02-16T22:04:29.232Z,0.77
2019-02-16T22:06:59.309Z,0.64
2019-02-16T22:09:29.761Z,0.50
2019-02-16T22:12:15.837Z,0.40
2019-02-16T22:14:44.313Z,0.51
2019-02-16T22:17:12.737Z,0.41
2019-02-16T22:19:41.164Z,0.40
2019-02-16T22:22:10.010Z,0.26
2019-02-16T22:24:38.538Z,0.15
2019-02-16T22:27:06.965Z,0.29
2019-02-16T22:29:35.420Z,0.16
2019-02-16T22:32:03.933Z,0.05
2019-02-16T22:34:32.366Z,0.04
2019-02-16T22:37:01.181Z,0.04
2019-02-16T22:39:29.625Z,0.12
2019-02-16T22:41:58.057Z,0.05
2019-02-16T22:44:26.521Z,0.06
2019-02-16T22:46:54.952Z,0.09
2019-02-16T22:49:23.452Z,0.16
2019-02-16T22:51:51.957Z,0.11
2019-02-16T22:54:20.458Z,-0.03
2019-02-16T22:56:48.898Z,-0.07
2019-02-16T22:59:17.371Z,0.03
2019-02-16T23:01:45.972Z,0.19
2019-02-16T23:04:14.403Z,0.20
2019-02-16T23:06:42.939Z,0.27
2019-02-16T23:09:13.081Z,0.15
2019-02-16T23:11:41.610Z,0.03
2019-02-16T23:14:10.169Z,0.11
2019-02-16T23:16:38.673Z,0.04
2019-02-16T23:19:07.548Z,0.03
2019-02-16T23:21:36.098Z,0.03
2019-02-16T23:24:04.761Z,-0.26
2019-02-16T23:26:33.197Z,-0.36
2019-02-16T23:29:01.667Z,-0.32
2019-02-16T23:31:30.741Z,-0.44
2019-02-16T23:33:59.173Z,-0.24
2019-02-16T23:36:28.039Z,-0.19
2019-02-16T23:38:56.801Z,-0.30
2019-02-16T23:41:25.434Z,-0.42
2019-02-16T23:43:53.896Z,-0.55
2019-02-16T23:46:22.328Z,-0.37
2019-02-16T23:48:51.133Z,-0.41
2019-02-16T23:51:19.597Z,-0.50
2019-02-16T23:53:48.100Z,-0.52
2019-02-16T23:56:16.563Z,-0.58
2019-02-16T23:58:49.177Z,-0.49
